Погода Умберту-ди-Кампусна 2 недели

Мараньян, Бразилия

14 - 26 июля
  • 14июля
    Сегодня
    +23°
    +32°
    Ясно и безоблачно
    ВремяПогодаТемператураВлажностьДавлениеВетер, м/сВероятность осадков
    00:00Облачно с прояснениями+25°C90 %760 мм1.8 м/с5 %
    03:00Небольшая облачность+24°C95 %760 мм1.7 м/с2 %
    06:00Ясно и безоблачно+23°C88 %761 мм2.6 м/с5 %
    09:00Практически безоблачно+28°C55 %762 мм3.8 м/с5 %
    12:00Небольшая облачность+31°C47 %761 мм4.3 м/с5 %
    15:00Ясно и безоблачно+32°C43 %759 мм3.0 м/с5 %
    18:00Ясно и безоблачно+28°C61 %760 мм1.5 м/с5 %
    21:00Ясно и безоблачно+25°C80 %761 мм1.8 м/с5 %
  • 15июля
    Понедельник
    +24°
    +32°
    Ясно и безоблачно
    ВремяПогодаТемператураВлажностьДавлениеВетер, м/сВероятность осадков
    00:00Практически безоблачно+25°C85 %761 мм1.1 м/с4 %
    03:00Ясно и безоблачно+24°C90 %760 мм1.2 м/с9 %
    06:00Ясно и безоблачно+24°C95 %761 мм1.7 м/с10 %
    09:00Ясно и безоблачно+28°C65 %762 мм4.3 м/с11 %
    12:00Ясно и безоблачно+31°C51 %761 мм3.1 м/с8 %
    15:00Ясно и безоблачно+32°C44 %760 мм3.0 м/с3 %
    18:00Ясно и безоблачно+29°C60 %760 мм1.6 м/с9 %
    21:00Ясно и безоблачно+26°C83 %762 мм2.5 м/с11 %
  • 16июля
    Вторник
    +23°
    +32°
    Практически безоблачно
    ВремяПогодаТемператураВлажностьДавлениеВетер, м/сВероятность осадков
    00:00Практически безоблачно+26°C89 %762 мм1.8 м/с23 %
    03:00Ясно и безоблачно+24°C94 %761 мм1.0 м/с30 %
    06:00Ясно и безоблачно+24°C97 %761 мм1.1 м/с28 %
    09:00Ясно и безоблачно+28°C66 %763 мм3.7 м/с21 %
    12:00Практически безоблачно+31°C44 %762 мм3.9 м/с12 %
    15:00Практически безоблачно+32°C41 %760 мм2.9 м/с5 %
    18:00Практически безоблачно+29°C69 %760 мм1.5 м/с4 %
    21:00Ясно и безоблачно+26°C87 %762 мм1.8 м/с4 %
  • 17июля
    Среда
    +23°
    +32°
    Ясно и безоблачно
    ВремяПогодаТемператураВлажностьДавлениеВетер, м/сВероятность осадков
    00:00Ясно и безоблачно+25°C91 %763 мм1.7 м/с5 %
    03:00Ясно и безоблачно+24°C94 %761 мм1.6 м/с12 %
    06:00Ясно и безоблачно+24°C95 %762 мм1.6 м/с12 %
    09:00Ясно и безоблачно+28°C74 %763 мм2.0 м/с6 %
    12:00Ясно и безоблачно+31°C49 %762 мм3.4 м/с5 %
    15:00Ясно и безоблачно+32°C44 %760 мм2.9 м/с5 %
    18:00Ясно и безоблачно+29°C65 %760 мм1.5 м/с3 %
    21:00Ясно и безоблачно+26°C81 %762 мм2.8 м/с5 %
  • 18июля
    Четверг
    +24°
    +33°
    Практически безоблачно
    ВремяПогодаТемператураВлажностьДавлениеВетер, м/сВероятность осадков
    00:00Ясно и безоблачно+25°C88 %762 мм1.8 м/с4 %
    03:00Ясно и безоблачно+24°C94 %760 мм1.3 м/с10 %
    06:00Ясно и безоблачно+24°C96 %761 мм1.5 м/с22 %
    09:00Ясно и безоблачно+28°C73 %762 мм4.2 м/с20 %
    12:00Ясно и безоблачно+31°C50 %761 мм3.5 м/с17 %
    15:00Практически безоблачно+32°C42 %760 мм2.7 м/с14 %
    18:00Небольшая облачность+29°C70 %760 мм2.1 м/с16 %
    21:00Ясно и безоблачно+26°C86 %762 мм2.6 м/с28 %
Мы используем cookies
Соглашаюсь